LKKU  Kunovice Airport

Add Bookmark

Uherské Hradiště, Czech Republic

Status IATA
Operational UHE
Latitude Longitude
49° 1' 45" N 17° 26' 22" E
49.029400 17.439699
Local (DST + 2) UTC (GMT + 1)
Aug 29, 2014 01:59 Aug 29, 2014 11:59
Sunrise-Sunset Local UTC
Begin Civil Twilight 05:28 03:28
Sunrise 06:01 04:01
Sunset 07:40 17:40
End Civil Twilight 08:14 18:14

Current Weather

METAR Observed VFR
LKKU 291100Z 20008KT 130V230 CAVOK 22/12 Q1019 Fri, Aug 29, 2014 @ 11:00 UTC
(59 Minutes ago)
Visual Flight Rules
Wind Visibility Clouds Conditions
200° at 8 knots (15 kph) 10 km or more
  • Clear skies
  • No significant weather
Temperatures Readings Precipitation
Current Temp 22°C (72°F)
Dewpoint 12°C (54°F)
Humidity 53%
Altimeter 30.09"Hg
Sea Level Pressure 1019mb
Field Elevation 580.71'
None Recorded

Additional weather within a 92.6km radius of LKKU

Map ICAO Location
LZPP 53.2km S (148°)
LKTB 55.9km W (284°)
LZZI 88.3km E (075°)
LKMT 88.5km N (033°)

24 Hour Weather History

Loading
-

24 Hour Weather Graphs

Loading
-

CheckWX.com is intended as a tool to help pilots better visualize weather data. It is not intended as a substitute for an official weather briefing obtained from a Flight Service Station. CheckWX.com does not meet the FAA requirements for an official pre-flight weather briefing. Therefore, it's important that pilots still call and obtain an official FSS pre-flight weather briefing.